createdAt,value
2022-10-03T00:01:45.927Z,4.80
2022-10-03T00:04:42.174Z,4.50
2022-10-03T00:07:40.382Z,4.18
2022-10-03T00:10:22.431Z,4.78
2022-10-03T00:12:54.669Z,5.43
2022-10-03T00:15:46.230Z,3.83
2022-10-03T00:18:49.896Z,5.05
2022-10-03T00:21:25.511Z,4.05
2022-10-03T00:24:00.072Z,5.15
2022-10-03T00:27:00.580Z,5.05
2022-10-03T00:29:36.427Z,4.63
2022-10-03T00:32:09.739Z,4.63
2022-10-03T00:35:12.204Z,4.18
2022-10-03T00:37:58.123Z,4.20
2022-10-03T00:40:56.387Z,4.40
2022-10-03T00:43:34.580Z,4.57
2022-10-03T00:46:33.107Z,3.78
2022-10-03T00:49:32.272Z,5.35
2022-10-03T00:52:27.925Z,4.43
2022-10-03T00:55:00.756Z,5.55
2022-10-03T00:58:04.756Z,4.00
2022-10-03T01:00:33.820Z,5.57
2022-10-03T01:03:11.898Z,4.00
2022-10-03T01:05:45.799Z,4.35
2022-10-03T01:08:36.629Z,5.25
2022-10-03T01:11:17.619Z,4.65
2022-10-03T01:13:56.450Z,4.93
2022-10-03T01:16:37.886Z,4.50
2022-10-03T01:19:46.716Z,4.88
2022-10-03T01:22:36.875Z,4.65
2022-10-03T01:25:30.427Z,4.38
2022-10-03T01:28:37.452Z,4.22
2022-10-03T01:31:10.208Z,3.85
2022-10-03T01:33:48.324Z,4.75
2022-10-03T01:36:33.384Z,4.47
2022-10-03T01:39:07.389Z,3.88
2022-10-03T01:41:51.823Z,4.63
2022-10-03T01:44:18.132Z,4.38
2022-10-03T01:47:05.423Z,4.70
2022-10-03T01:49:56.897Z,3.95
2022-10-03T01:53:02.307Z,4.60
2022-10-03T01:55:56.355Z,4.55
2022-10-03T01:58:27.070Z,4.03
2022-10-03T02:01:12.073Z,4.35
2022-10-03T02:04:04.365Z,4.07
2022-10-03T02:06:49.742Z,4.25
2022-10-03T02:09:47.502Z,3.88
2022-10-03T02:12:25.276Z,3.45
2022-10-03T02:14:59.730Z,4.90
2022-10-03T02:18:03.747Z,3.50
2022-10-03T02:20:45.583Z,4.82
2022-10-03T02:23:31.573Z,4.20
2022-10-03T02:26:35.327Z,3.92
2022-10-03T02:29:31.217Z,3.97
2022-10-03T02:32:46.027Z,4.22
2022-10-03T02:35:18.375Z,3.92
2022-10-03T02:38:05.958Z,5.03
2022-10-03T02:41:08.913Z,4.13
2022-10-03T02:44:02.683Z,4.00
2022-10-03T02:47:01.150Z,4.82
2022-10-03T02:49:46.660Z,3.92
2022-10-03T02:52:40.323Z,4.00
2022-10-03T02:55:31.459Z,5.15
2022-10-03T02:58:36.812Z,4.85
2022-10-03T03:01:29.722Z,4.05
2022-10-03T03:04:21.208Z,4.20
2022-10-03T03:07:02.538Z,3.40
2022-10-03T03:10:02.850Z,3.88
2022-10-03T03:12:53.823Z,4.72
2022-10-03T03:15:39.052Z,4.80
2022-10-03T03:18:33.107Z,4.00
2022-10-03T03:21:15.199Z,3.63
2022-10-03T03:24:08.345Z,3.58
2022-10-03T03:27:05.391Z,4.32
2022-10-03T03:29:55.298Z,4.13
2022-10-03T03:32:53.039Z,3.55
2022-10-03T03:35:33.823Z,4.30
2022-10-03T03:38:31.242Z,4.32
2022-10-03T03:41:27.053Z,5.05
2022-10-03T03:44:08.691Z,5.10
2022-10-03T03:47:01.620Z,4.80
2022-10-03T03:50:06.150Z,4.38
2022-10-03T03:52:41.411Z,4.93
2022-10-03T03:55:34.104Z,4.50
2022-10-03T03:58:17.002Z,4.05
2022-10-03T04:01:00.306Z,4.10
2022-10-03T04:03:52.862Z,4.68
2022-10-03T04:06:34.968Z,3.88
2022-10-03T04:09:31.023Z,4.10
2022-10-03T04:12:24.704Z,4.25
2022-10-03T04:15:03.879Z,4.10
2022-10-03T04:18:21.852Z,4.70
2022-10-03T04:21:13.633Z,3.85
2022-10-03T04:24:07.855Z,4.60
2022-10-03T04:27:03.457Z,4.45
2022-10-03T04:29:57.809Z,2.90
2022-10-03T04:32:40.059Z,4.15
2022-10-03T04:35:25.529Z,3.55
2022-10-03T04:38:23.663Z,3.97
2022-10-03T04:41:12.342Z,4.00
2022-10-03T04:43:53.736Z,3.72
2022-10-03T04:46:57.444Z,3.67
2022-10-03T04:49:53.610Z,3.95
2022-10-03T04:52:32.014Z,4.68
2022-10-03T04:55:37.298Z,4.30
2022-10-03T04:58:32.975Z,3.47
2022-10-03T05:01:13.131Z,4.10
2022-10-03T05:03:49.046Z,3.37
2022-10-03T05:06:31.414Z,4.40
2022-10-03T05:09:16.847Z,3.80
2022-10-03T05:12:15.131Z,4.25
2022-10-03T05:15:11.614Z,3.80
2022-10-03T05:17:52.533Z,4.10
2022-10-03T05:20:44.537Z,3.70
2022-10-03T05:23:31.217Z,3.42
2022-10-03T05:26:43.741Z,5.10
2022-10-03T05:29:36.446Z,3.90
2022-10-03T05:32:20.933Z,3.47
2022-10-03T05:35:15.357Z,3.40
2022-10-03T05:37:44.474Z,4.22
2022-10-03T05:40:26.871Z,3.28
2022-10-03T05:43:03.165Z,3.97
2022-10-03T05:45:41.540Z,3.85
2022-10-03T05:48:10.595Z,4.32
2022-10-03T05:50:58.247Z,4.45
2022-10-03T05:54:02.256Z,4.78
2022-10-03T05:56:41.052Z,4.25
2022-10-03T05:59:43.161Z,5.60
2022-10-03T06:02:51.113Z,4.00
2022-10-03T06:05:32.707Z,3.47
2022-10-03T06:08:15.782Z,3.40
2022-10-03T06:10:53.210Z,3.42
2022-10-03T06:13:41.554Z,3.58
2022-10-03T06:16:32.332Z,3.45
2022-10-03T06:19:17.070Z,3.60
2022-10-03T06:21:58.441Z,3.35
2022-10-03T06:25:06.155Z,4.13
2022-10-03T06:27:32.898Z,2.78
2022-10-03T06:30:12.153Z,4.40
2022-10-03T06:33:27.342Z,3.67
2022-10-03T06:36:28.992Z,4.43
2022-10-03T06:39:27.476Z,4.80
2022-10-03T06:42:23.446Z,3.22
2022-10-03T06:45:12.645Z,3.50
2022-10-03T06:48:03.299Z,2.92
2022-10-03T06:50:46.102Z,4.47
2022-10-03T06:53:23.493Z,4.35
2022-10-03T06:56:07.820Z,3.47
2022-10-03T06:58:46.424Z,4.25
2022-10-03T07:01:12.912Z,3.17
2022-10-03T07:04:17.213Z,4.35
2022-10-03T07:07:07.418Z,4.40
2022-10-03T07:09:57.999Z,4.28
2022-10-03T07:12:53.917Z,3.15
2022-10-03T07:19:22.736Z,3.70
2022-10-03T07:22:23.486Z,3.42
2022-10-03T07:25:22.637Z,5.05
2022-10-03T07:28:18.230Z,3.42
2022-10-03T07:31:08.604Z,4.82
2022-10-03T07:33:54.760Z,4.17
2022-10-03T07:36:58.736Z,3.65
2022-10-03T07:39:45.143Z,3.72
2022-10-03T07:42:44.794Z,3.97
2022-10-03T07:45:30.312Z,3.17
2022-10-03T07:48:13.875Z,3.50
2022-10-03T07:51:09.724Z,5.00
2022-10-03T07:54:10.249Z,3.85
2022-10-03T07:57:21.831Z,4.07
2022-10-03T08:00:10.293Z,3.20
2022-10-03T08:03:03.777Z,4.00
2022-10-03T08:06:07.900Z,4.75
2022-10-03T08:08:56.829Z,4.07
2022-10-03T08:11:47.756Z,3.17
2022-10-03T08:14:19.226Z,4.30
2022-10-03T08:17:15.618Z,4.18
2022-10-03T08:20:01.822Z,4.50
2022-10-03T08:22:55.963Z,4.50
2022-10-03T08:25:56.230Z,3.38
2022-10-03T08:28:52.042Z,3.30
2022-10-03T08:31:42.392Z,3.55
2022-10-03T08:34:50.299Z,4.93
2022-10-03T08:37:35.478Z,3.65
2022-10-03T08:40:39.477Z,4.53
2022-10-03T08:43:14.757Z,4.38
2022-10-03T08:45:47.047Z,3.85
2022-10-03T08:48:51.413Z,2.92
2022-10-03T08:51:54.585Z,3.53
2022-10-03T08:54:53.413Z,4.22
2022-10-03T08:57:36.329Z,4.95
2022-10-03T09:00:04.426Z,5.28
2022-10-03T09:03:32.671Z,3.72
2022-10-03T09:06:09.417Z,3.72
2022-10-03T09:09:10.000Z,4.03
2022-10-03T09:12:01.046Z,3.83
2022-10-03T09:14:38.523Z,4.43
2022-10-03T09:17:53.221Z,3.22
2022-10-03T09:20:54.864Z,3.38
2022-10-03T09:23:56.044Z,3.65
2022-10-03T09:26:44.043Z,3.85
2022-10-03T09:29:32.509Z,3.65
2022-10-03T09:32:38.399Z,4.53
2022-10-03T09:35:34.543Z,3.03
2022-10-03T09:38:39.996Z,3.58
2022-10-03T09:41:37.992Z,3.42
2022-10-03T09:44:15.404Z,3.90
2022-10-03T09:47:26.609Z,3.88
2022-10-03T09:50:36.620Z,3.60
2022-10-03T09:53:18.683Z,3.65
2022-10-03T09:56:22.426Z,3.22
2022-10-03T09:59:20.866Z,3.75
2022-10-03T10:02:11.720Z,3.45
2022-10-03T10:04:57.321Z,2.95
2022-10-03T10:08:04.959Z,3.28
2022-10-03T10:10:57.162Z,3.60
2022-10-03T10:14:13.782Z,4.00
2022-10-03T10:17:47.851Z,3.63
2022-10-03T10:20:24.356Z,2.72
2022-10-03T10:23:10.387Z,2.80
2022-10-03T10:25:58.905Z,3.38
2022-10-03T10:28:59.053Z,3.15
2022-10-03T10:31:37.514Z,3.55
2022-10-03T10:34:22.585Z,4.10
2022-10-03T10:37:07.583Z,2.75
2022-10-03T10:40:03.783Z,2.75
2022-10-03T10:43:07.762Z,2.95
2022-10-03T10:45:42.925Z,2.75
2022-10-03T10:49:01.418Z,2.92
2022-10-03T10:52:05.164Z,2.88
2022-10-03T10:55:03.388Z,3.58
2022-10-03T10:58:05.114Z,2.95
2022-10-03T11:00:54.075Z,3.53
2022-10-03T11:03:54.766Z,2.08
2022-10-03T11:06:59.436Z,2.50
2022-10-03T11:09:55.612Z,1.90
2022-10-03T11:12:56.284Z,2.63
2022-10-03T11:15:47.713Z,1.77
2022-10-03T11:18:32.708Z,2.35
2022-10-03T11:21:23.796Z,1.85
2022-10-03T11:26:59.419Z,3.60
2022-10-03T11:30:03.539Z,3.47
2022-10-03T11:33:11.518Z,2.85
2022-10-03T11:36:27.817Z,3.05
2022-10-03T11:39:04.803Z,2.80
2022-10-03T11:41:41.214Z,3.45
2022-10-03T11:44:19.434Z,2.70
2022-10-03T11:47:02.996Z,3.75
2022-10-03T11:49:54.868Z,2.95
2022-10-03T11:52:35.268Z,3.47
2022-10-03T11:55:24.277Z,3.05
2022-10-03T11:58:08.205Z,2.92
2022-10-03T12:00:38.984Z,2.75
2022-10-03T12:03:15.410Z,2.55
2022-10-03T12:06:17.463Z,2.42
2022-10-03T12:09:07.988Z,2.15
2022-10-03T12:11:46.712Z,3.50
2022-10-03T12:14:26.632Z,2.17
2022-10-03T12:17:10.787Z,2.45
2022-10-03T12:19:42.485Z,2.25
2022-10-03T12:22:28.982Z,2.47
2022-10-03T12:25:02.381Z,3.63
2022-10-03T12:27:55.481Z,2.53
2022-10-03T12:30:22.503Z,2.75
2022-10-03T12:33:03.901Z,2.53
2022-10-03T12:35:38.624Z,2.08
2022-10-03T12:38:25.243Z,1.77
2022-10-03T12:41:04.558Z,2.58
2022-10-03T12:43:41.714Z,1.70
2022-10-03T12:46:35.024Z,2.85
2022-10-03T12:49:17.623Z,2.50
2022-10-03T12:51:46.873Z,2.97
2022-10-03T12:54:44.082Z,2.25
2022-10-03T12:57:44.546Z,2.70
2022-10-03T13:00:21.939Z,2.13
2022-10-03T13:03:17.262Z,2.15
2022-10-03T13:06:20.203Z,1.70
2022-10-03T13:09:16.496Z,1.95
2022-10-03T13:12:00.027Z,2.25
2022-10-03T13:15:17.699Z,2.35
2022-10-03T13:17:57.832Z,1.77
2022-10-03T13:20:37.003Z,2.03
2022-10-03T13:23:23.652Z,2.22
2022-10-03T13:25:59.932Z,2.08
2022-10-03T13:28:36.693Z,1.98
2022-10-03T13:31:19.204Z,2.28
2022-10-03T13:33:52.202Z,2.20
2022-10-03T13:37:00.551Z,2.08
2022-10-03T13:39:40.593Z,2.72
2022-10-03T13:42:19.231Z,2.53
2022-10-03T13:44:48.347Z,3.13
2022-10-03T13:47:51.801Z,2.70
2022-10-03T13:50:34.196Z,2.50
2022-10-03T13:53:05.885Z,2.58
2022-10-03T13:56:04.695Z,2.40
2022-10-03T13:58:50.263Z,2.75
2022-10-03T14:01:42.656Z,2.40
2022-10-03T14:04:43.284Z,2.50
2022-10-03T14:07:14.829Z,3.03
2022-10-03T14:10:04.318Z,2.42
2022-10-03T14:12:55.771Z,2.65
2022-10-03T14:15:26.835Z,2.20
2022-10-03T14:18:37.410Z,3.40
2022-10-03T14:21:28.601Z,2.77
2022-10-03T14:24:06.970Z,2.67
2022-10-03T14:26:41.192Z,2.50
2022-10-03T14:29:10.592Z,2.75
2022-10-03T14:31:54.818Z,3.13
2022-10-03T14:34:41.442Z,2.30
2022-10-03T14:37:18.850Z,2.60
2022-10-03T14:40:23.365Z,2.58
2022-10-03T14:43:02.349Z,2.83
2022-10-03T14:45:33.434Z,2.80
2022-10-03T14:48:08.133Z,3.15
2022-10-03T14:50:40.187Z,2.95
2022-10-03T14:53:24.035Z,2.20
2022-10-03T14:56:02.844Z,3.10
2022-10-03T14:58:34.284Z,3.05
2022-10-03T15:01:02.784Z,2.70
2022-10-03T15:03:34.108Z,2.70
2022-10-03T15:06:36.188Z,2.83
2022-10-03T15:09:09.921Z,2.42
2022-10-03T15:11:45.453Z,2.30
2022-10-03T15:14:12.621Z,2.47
2022-10-03T15:16:46.044Z,2.63
2022-10-03T15:19:26.051Z,2.75
2022-10-03T15:21:53.478Z,2.60
2022-10-03T15:24:28.419Z,2.22
2022-10-03T15:27:01.609Z,3.58
2022-10-03T15:29:30.719Z,2.67
2022-10-03T15:31:58.202Z,2.33
2022-10-03T15:34:33.766Z,2.42
2022-10-03T15:37:07.144Z,3.78
2022-10-03T15:39:43.923Z,2.45
2022-10-03T15:42:10.383Z,2.35
2022-10-03T15:44:39.705Z,2.70
2022-10-03T15:47:09.199Z,2.45
2022-10-03T15:49:38.934Z,2.20
2022-10-03T15:52:16.880Z,2.40
2022-10-03T15:54:54.703Z,2.40
2022-10-03T15:57:33.111Z,2.50
2022-10-03T16:00:03.567Z,2.53
2022-10-03T16:02:39.383Z,2.70
2022-10-03T16:07:49.074Z,2.10
2022-10-03T16:10:24.789Z,2.00
2022-10-03T16:13:04.628Z,1.98
2022-10-03T16:16:19.090Z,2.95
2022-10-03T16:18:51.869Z,2.20
2022-10-03T16:21:49.188Z,2.38
2022-10-03T16:24:32.744Z,2.95
2022-10-03T16:27:07.675Z,3.22
2022-10-03T16:29:38.928Z,2.33
2022-10-03T16:32:09.814Z,2.40
2022-10-03T16:37:18.208Z,2.30
2022-10-03T16:39:52.874Z,2.80
2022-10-03T16:42:25.682Z,2.03
2022-10-03T16:44:58.098Z,2.33
2022-10-03T16:47:37.784Z,3.40
2022-10-03T16:50:24.764Z,2.40
2022-10-03T16:52:54.161Z,1.90
2022-10-03T16:55:20.519Z,4.47
2022-10-03T16:57:52.678Z,2.92
2022-10-03T17:00:26.964Z,3.67
2022-10-03T17:02:55.625Z,2.70
2022-10-03T17:05:22.898Z,3.95
2022-10-03T17:07:54.670Z,2.95
2022-10-03T17:10:30.804Z,4.22
2022-10-03T17:13:03.653Z,3.83
2022-10-03T17:15:34.467Z,3.63
2022-10-03T17:18:08.219Z,2.80
2022-10-03T17:20:50.962Z,3.08
2022-10-03T17:23:27.621Z,3.58
2022-10-03T17:26:03.488Z,2.60
2022-10-03T17:28:44.610Z,2.70
2022-10-03T17:34:08.862Z,3.13
2022-10-03T17:36:45.925Z,3.38
2022-10-03T17:39:46.784Z,2.28
2022-10-03T17:42:31.443Z,2.33
2022-10-03T17:45:12.255Z,3.08
2022-10-03T17:47:58.829Z,3.10
2022-10-03T17:50:38.060Z,3.03
2022-10-03T17:53:04.946Z,2.90
2022-10-03T17:55:40.658Z,2.85
2022-10-03T17:58:19.164Z,2.55
2022-10-03T18:00:45.503Z,2.78
2022-10-03T18:03:40.149Z,2.70
2022-10-03T18:06:37.439Z,2.58
2022-10-03T18:09:10.581Z,2.90
2022-10-03T18:11:40.353Z,2.38
2022-10-03T18:14:23.814Z,2.83
2022-10-03T18:17:04.989Z,2.25
2022-10-03T18:19:54.747Z,2.42
2022-10-03T18:22:36.065Z,2.58
2022-10-03T18:25:34.495Z,2.90
2022-10-03T18:28:24.515Z,2.63
2022-10-03T18:31:02.693Z,2.20
2022-10-03T18:33:51.027Z,3.17
2022-10-03T18:36:23.855Z,2.88
2022-10-03T18:38:55.748Z,3.25
2022-10-03T18:41:22.176Z,3.95
2022-10-03T18:43:59.871Z,4.95
2022-10-03T18:46:39.020Z,2.78
2022-10-03T18:49:35.650Z,3.13
2022-10-03T18:52:31.075Z,2.17
2022-10-03T18:55:02.677Z,2.75
2022-10-03T18:57:38.056Z,2.65
2022-10-03T19:00:18.242Z,2.45
2022-10-03T19:02:52.193Z,2.93
2022-10-03T19:05:26.332Z,3.42
2022-10-03T19:08:08.055Z,3.40
2022-10-03T19:10:51.424Z,3.55
2022-10-03T19:13:24.614Z,3.25
2022-10-03T19:16:09.454Z,2.30
2022-10-03T19:18:41.846Z,2.75
2022-10-03T19:21:18.550Z,2.95
2022-10-03T19:24:02.732Z,2.40
2022-10-03T19:26:36.323Z,2.15
2022-10-03T19:29:25.296Z,2.63
2022-10-03T19:31:55.731Z,2.65
2022-10-03T19:34:28.768Z,3.08
2022-10-03T19:36:57.461Z,2.78
2022-10-03T19:39:27.859Z,1.80
2022-10-03T19:42:18.460Z,3.60
2022-10-03T19:44:44.865Z,3.97
2022-10-03T19:47:22.117Z,2.70
2022-10-03T19:50:06.907Z,2.90
2022-10-03T19:52:35.517Z,2.90
2022-10-03T19:55:12.684Z,3.10
2022-10-03T19:58:01.353Z,3.15
2022-10-03T20:00:34.824Z,3.65
2022-10-03T20:03:16.440Z,3.17
2022-10-03T20:05:53.308Z,4.03
2022-10-03T20:08:22.849Z,3.00
2022-10-03T20:11:15.885Z,2.90
2022-10-03T20:13:47.944Z,3.47
2022-10-03T20:16:16.934Z,2.45
2022-10-03T20:18:48.587Z,3.00
2022-10-03T20:21:19.907Z,2.70
2022-10-03T20:23:48.080Z,3.05
2022-10-03T20:26:29.706Z,3.00
2022-10-03T20:29:20.419Z,3.17
2022-10-03T20:31:47.673Z,3.33
2022-10-03T20:34:16.699Z,2.88
2022-10-03T20:36:49.384Z,2.78
2022-10-03T20:39:23.129Z,3.08
2022-10-03T20:42:17.818Z,3.20
2022-10-03T20:44:55.407Z,3.53
2022-10-03T20:47:47.591Z,3.92
2022-10-03T20:50:25.697Z,3.20
2022-10-03T20:53:03.782Z,3.50
2022-10-03T20:55:44.120Z,2.92
2022-10-03T20:58:18.024Z,3.53
2022-10-03T21:00:48.754Z,2.47
2022-10-03T21:03:38.252Z,3.92
2022-10-03T21:06:17.564Z,3.25
2022-10-03T21:08:44.537Z,3.85
2022-10-03T21:11:10.852Z,2.97
2022-10-03T21:13:49.708Z,2.95
2022-10-03T21:16:40.861Z,3.63
2022-10-03T21:21:48.512Z,2.55
2022-10-03T21:24:26.930Z,3.25
2022-10-03T21:26:58.396Z,3.22
2022-10-03T21:29:24.731Z,3.55
2022-10-03T21:32:14.307Z,3.47
2022-10-03T21:35:02.121Z,3.35
2022-10-03T21:38:04.595Z,4.03
2022-10-03T21:40:49.372Z,3.67
2022-10-03T21:43:18.513Z,3.22
2022-10-03T21:46:09.930Z,2.60
2022-10-03T21:49:01.797Z,3.17
2022-10-03T21:51:37.856Z,3.15
2022-10-03T21:54:33.840Z,2.70
2022-10-03T21:57:32.641Z,3.83
2022-10-03T22:00:16.939Z,3.03
2022-10-03T22:03:14.098Z,2.47
2022-10-03T22:06:03.377Z,2.97
2022-10-03T22:08:34.080Z,3.58
2022-10-03T22:11:28.551Z,3.67
2022-10-03T22:14:02.047Z,3.42
2022-10-03T22:16:50.307Z,3.22
2022-10-03T22:19:35.488Z,3.58
2022-10-03T22:22:22.116Z,3.75
2022-10-03T22:25:19.300Z,3.20
2022-10-03T22:28:17.339Z,3.88
2022-10-03T22:30:54.973Z,2.53
2022-10-03T22:33:49.428Z,3.15
2022-10-03T22:36:16.699Z,2.63
2022-10-03T22:38:44.638Z,2.97
2022-10-03T22:41:16.354Z,3.25
2022-10-03T22:43:44.240Z,3.17
2022-10-03T22:46:18.071Z,3.13
2022-10-03T22:48:50.064Z,3.22
2022-10-03T22:51:19.963Z,2.83
2022-10-03T22:53:51.674Z,3.00
2022-10-03T22:56:40.250Z,3.63
2022-10-03T22:59:11.611Z,2.78
2022-10-03T23:01:42.741Z,3.60
2022-10-03T23:04:16.760Z,2.97
2022-10-03T23:07:05.312Z,3.13
2022-10-03T23:09:48.339Z,2.80
2022-10-03T23:12:16.734Z,3.30
2022-10-03T23:14:48.026Z,3.67
2022-10-03T23:17:43.326Z,2.95
2022-10-03T23:20:46.140Z,2.85
2022-10-03T23:23:18.775Z,3.85
2022-10-03T23:26:00.792Z,3.58
2022-10-03T23:28:49.851Z,3.88
2022-10-03T23:31:54.082Z,4.60
2022-10-03T23:34:35.559Z,4.50
2022-10-03T23:37:11.140Z,3.70
2022-10-03T23:40:04.908Z,4.35
2022-10-03T23:42:31.225Z,3.85
2022-10-03T23:45:10.799Z,4.32
2022-10-03T23:47:54.871Z,3.40
2022-10-03T23:50:47.054Z,3.53
2022-10-03T23:53:41.126Z,3.88
2022-10-03T23:56:22.741Z,4.00
2022-10-03T23:58:58.270Z,3.97
